createdAt,value
2019-01-23T00:02:34.328Z,99.10
2019-01-23T00:18:29.314Z,98.80
2019-01-23T00:34:23.242Z,98.60
2019-01-23T00:50:16.927Z,98.60
2019-01-23T01:06:10.602Z,98.50
2019-01-23T01:22:04.236Z,98.80
2019-01-23T01:37:58.146Z,98.90
2019-01-23T01:53:51.780Z,99.50
2019-01-23T02:09:45.670Z,98.50
2019-01-23T02:25:39.447Z,98.10
2019-01-23T02:41:33.123Z,98.00
2019-01-23T02:57:27.148Z,98.30
2019-01-23T03:13:20.886Z,98.20
2019-01-23T03:29:15.092Z,97.50
2019-01-23T03:45:11.026Z,97.70
2019-01-23T04:01:04.537Z,99.00
2019-01-23T04:16:58.038Z,98.10
2019-01-23T04:32:51.742Z,98.40
2019-01-23T04:48:45.685Z,98.70
2019-01-23T05:04:39.637Z,99.50
2019-01-23T05:20:33.190Z,99.40
2019-01-23T05:36:26.949Z,99.90
2019-01-23T05:52:21.202Z,99.90
2019-01-23T06:08:15.026Z,99.90
2019-01-23T06:24:11.412Z,99.90
2019-01-23T06:40:08.118Z,99.60
2019-01-23T06:56:02.164Z,99.60
2019-01-23T07:11:55.910Z,99.20
2019-01-23T07:27:49.449Z,99.80
2019-01-23T07:43:43.102Z,99.50
2019-01-23T07:59:36.692Z,99.90
2019-01-23T08:15:32.624Z,99.90
2019-01-23T08:31:26.982Z,99.70
2019-01-23T08:47:20.511Z,99.20
2019-01-23T09:03:14.205Z,98.60
2019-01-23T09:19:07.764Z,98.80
2019-01-23T09:52:41.418Z,38.30
2019-01-23T10:08:34.864Z,85.00
2019-01-23T10:24:28.706Z,93.60
2019-01-23T10:40:22.402Z,93.80
2019-01-23T10:56:16.031Z,92.70
2019-01-23T11:12:09.678Z,92.60
2019-01-23T11:28:04.157Z,90.50
2019-01-23T11:43:58.311Z,88.50
2019-01-23T11:59:52.414Z,87.30
2019-01-23T12:15:46.184Z,85.00
2019-01-23T12:31:40.034Z,81.20
2019-01-23T12:47:33.723Z,74.00
2019-01-23T13:03:27.995Z,74.10
2019-01-23T13:19:21.916Z,72.50
2019-01-23T13:35:18.994Z,72.80
2019-01-23T13:51:12.845Z,72.40
2019-01-23T14:07:06.623Z,71.60
2019-01-23T14:23:00.456Z,72.90
2019-01-23T14:38:54.245Z,75.40
2019-01-23T14:54:48.022Z,76.50
2019-01-23T15:10:41.735Z,77.80
2019-01-23T15:26:35.292Z,80.60
2019-01-23T15:42:29.645Z,84.60
2019-01-23T15:58:23.413Z,86.00
2019-01-23T16:14:17.375Z,87.80
2019-01-23T16:30:14.420Z,91.00
2019-01-23T16:46:08.404Z,92.30
2019-01-23T17:02:02.155Z,92.60
2019-01-23T17:17:56.127Z,93.10
2019-01-23T17:33:49.803Z,93.90
2019-01-23T17:50:02.904Z,93.50
2019-01-23T18:05:56.847Z,92.80
2019-01-23T18:21:50.499Z,92.60
2019-01-23T18:37:47.664Z,92.00
2019-01-23T18:53:41.864Z,91.70
2019-01-23T19:09:35.815Z,90.50
2019-01-23T19:25:29.772Z,89.50
2019-01-23T19:41:23.338Z,92.20
2019-01-23T19:57:17.080Z,93.20
2019-01-23T20:13:11.275Z,93.50
2019-01-23T20:29:05.435Z,94.10
2019-01-23T20:44:59.194Z,94.30
2019-01-23T21:00:52.932Z,94.30
2019-01-23T21:16:46.488Z,94.50
2019-01-23T21:32:40.475Z,94.40
2019-01-23T21:48:34.155Z,94.90
2019-01-23T22:04:39.875Z,94.60
2019-01-23T22:20:33.798Z,94.50
2019-01-23T22:36:27.479Z,94.30
2019-01-23T22:52:21.421Z,94.80
2019-01-23T23:08:15.450Z,94.90
2019-01-23T23:24:09.346Z,95.10
2019-01-23T23:40:03.512Z,95.20
2019-01-23T23:55:57.350Z,95.30
